METAR Data
IDs: Format: Raw Decoded Include TAF

Data at: 1344 UTC 25 Nov 2020

PGUM 251342Z 07010KT 10SM FEW018 SCT025 27/24 A2987 RMK AO2 T02720244